Bangor, Wisconsin
Current Conditions -  °F | °C
As of 3:53 PM on Friday 19 Dec 2014 (Local Time) from KLSE Reporting Station
Overcast Overcast  
Wind Chill: 25°   Ceiling: 2900
Heat Index: 31°   Visibility: 10mi
Dew Point: 20°   Wind: 6mph
Humidity: 64%   Direction: 180°S
Pressure: 30.27"   Gusts: NA
Location:  43.89°N, 90.99°W
Report Text: KLSE 192153Z 18005KT 10SM OVC029 M01/M07 A3027 RMK AO2 SLP264 T10061067
Loading
Personal Weather Stations






























Interactive Weather Map New forecast layout! Learn more

10-Day Weather Forecast

Advertisements
Track Severe Weather on mobile